createdAt,value
2023-03-29T00:01:36.157Z,4.20
2023-03-29T00:06:42.107Z,5.60
2023-03-29T00:11:46.664Z,5.13
2023-03-29T00:16:52.191Z,5.07
2023-03-29T00:21:56.288Z,4.72
2023-03-29T00:27:01.635Z,5.30
2023-03-29T00:32:07.607Z,4.93
2023-03-29T00:37:12.478Z,4.80
2023-03-29T00:42:18.661Z,4.90
2023-03-29T00:47:29.173Z,4.70
2023-03-29T00:52:34.136Z,4.35
2023-03-29T00:57:41.087Z,3.23
2023-03-29T01:02:51.136Z,4.50
2023-03-29T01:08:00.216Z,4.55
2023-03-29T01:13:09.627Z,5.50
2023-03-29T01:18:16.097Z,4.18
2023-03-29T01:23:38.257Z,4.50
2023-03-29T01:28:48.231Z,4.82
2023-03-29T01:33:56.846Z,4.75
2023-03-29T01:39:05.251Z,5.07
2023-03-29T01:44:18.341Z,4.28
2023-03-29T01:49:28.749Z,5.55
2023-03-29T01:54:38.137Z,5.60
2023-03-29T01:59:48.517Z,5.50
2023-03-29T02:04:56.182Z,5.65
2023-03-29T02:10:01.028Z,4.65
2023-03-29T02:15:12.343Z,5.23
2023-03-29T02:20:22.595Z,5.28
2023-03-29T02:25:28.574Z,5.47
2023-03-29T02:30:42.130Z,5.03
2023-03-29T02:35:51.033Z,5.10
2023-03-29T02:40:57.573Z,5.30
2023-03-29T02:46:04.299Z,4.32
2023-03-29T02:51:14.597Z,5.50
2023-03-29T02:56:20.671Z,4.78
2023-03-29T03:01:26.530Z,4.83
2023-03-29T03:06:30.891Z,4.60
2023-03-29T03:11:35.499Z,5.75
2023-03-29T03:16:41.228Z,5.40
2023-03-29T03:26:50.125Z,4.65
2023-03-29T03:31:57.626Z,3.85
2023-03-29T03:37:22.613Z,4.82
2023-03-29T03:42:29.550Z,4.22
2023-03-29T03:47:37.481Z,4.75
2023-03-29T03:52:55.775Z,5.07
2023-03-29T03:58:00.624Z,4.70
2023-03-29T04:03:07.121Z,5.17
2023-03-29T04:08:13.869Z,4.75
2023-03-29T04:13:36.280Z,4.78
2023-03-29T04:19:05.141Z,4.30
2023-03-29T04:24:10.275Z,4.88
2023-03-29T04:29:17.343Z,4.50
2023-03-29T04:34:30.239Z,4.05
2023-03-29T04:39:35.955Z,5.60
2023-03-29T04:44:43.718Z,4.72
2023-03-29T04:49:52.133Z,5.93
2023-03-29T04:55:09.889Z,5.88
2023-03-29T05:00:20.464Z,6.07
2023-03-29T05:05:46.352Z,5.72
2023-03-29T05:10:51.259Z,5.75
2023-03-29T05:15:57.214Z,8.23
2023-03-29T05:21:04.561Z,10.43
2023-03-29T05:26:10.647Z,12.02
2023-03-29T05:36:30.026Z,13.07
2023-03-29T05:41:34.676Z,5.82
2023-03-29T05:46:57.393Z,8.60
2023-03-29T05:52:04.108Z,7.20
2023-03-29T05:57:10.222Z,5.75
2023-03-29T06:02:16.139Z,6.18
2023-03-29T06:07:27.326Z,7.80
2023-03-29T06:12:52.196Z,6.63
2023-03-29T06:18:00.045Z,5.70
2023-03-29T06:23:05.780Z,7.63
2023-03-29T06:28:10.348Z,7.53
2023-03-29T06:33:15.617Z,6.55
2023-03-29T06:38:41.725Z,6.50
2023-03-29T06:43:56.328Z,5.93
2023-03-29T06:49:07.441Z,5.90
2023-03-29T06:54:22.376Z,6.78
2023-03-29T06:59:36.097Z,5.57
2023-03-29T07:05:11.477Z,5.38
2023-03-29T07:10:23.074Z,5.57
2023-03-29T07:15:56.156Z,5.00
2023-03-29T07:21:16.546Z,5.97
2023-03-29T07:26:28.643Z,4.70
2023-03-29T07:31:38.664Z,3.80
2023-03-29T07:37:02.770Z,4.72
2023-03-29T07:42:08.526Z,5.40
2023-03-29T07:47:13.425Z,3.78
2023-03-29T07:52:18.247Z,4.17
2023-03-29T07:57:24.343Z,3.58
2023-03-29T08:02:31.367Z,4.05
2023-03-29T08:07:41.088Z,3.05
2023-03-29T08:12:55.557Z,3.55
2023-03-29T08:18:08.187Z,2.70
2023-03-29T08:23:12.641Z,3.00
2023-03-29T08:28:36.793Z,2.33
2023-03-29T08:33:42.973Z,3.97
2023-03-29T08:39:19.684Z,1.90
2023-03-29T08:44:48.487Z,2.15
2023-03-29T08:49:56.925Z,2.55
2023-03-29T08:55:22.381Z,2.00
2023-03-29T09:00:53.329Z,2.17
2023-03-29T09:06:01.454Z,3.35
2023-03-29T09:11:33.786Z,2.80
2023-03-29T09:16:49.734Z,2.90
2023-03-29T09:22:04.344Z,2.88
2023-03-29T09:27:16.500Z,2.53
2023-03-29T09:37:41.284Z,3.60
2023-03-29T09:42:46.855Z,2.65
2023-03-29T09:47:56.420Z,3.95
2023-03-29T09:53:01.419Z,2.88
2023-03-29T09:58:14.979Z,2.83
2023-03-29T10:03:31.200Z,3.30
2023-03-29T10:08:48.515Z,3.40
2023-03-29T10:13:57.551Z,3.08
2023-03-29T10:19:19.414Z,3.92
2023-03-29T10:24:28.463Z,3.50
2023-03-29T10:29:38.593Z,3.60
2023-03-29T10:34:48.866Z,3.38
2023-03-29T10:39:55.488Z,3.00
2023-03-29T10:45:13.751Z,3.55
2023-03-29T10:50:22.867Z,4.88
2023-03-29T10:55:33.680Z,6.43
2023-03-29T11:00:44.702Z,4.70
2023-03-29T11:05:55.808Z,4.40
2023-03-29T11:11:12.139Z,3.80
2023-03-29T11:16:25.887Z,5.00
2023-03-29T11:21:39.779Z,2.95
2023-03-29T11:26:56.994Z,4.18
2023-03-29T11:32:09.253Z,4.55
2023-03-29T11:37:21.859Z,4.43
2023-03-29T11:42:32.233Z,8.63
2023-03-29T11:47:40.505Z,4.45
2023-03-29T11:52:51.107Z,4.53
2023-03-29T11:57:58.009Z,3.72
2023-03-29T12:03:08.180Z,3.90
2023-03-29T12:08:17.877Z,4.38
2023-03-29T12:13:26.970Z,3.50
2023-03-29T12:18:37.876Z,4.40
2023-03-29T12:23:45.344Z,5.13
2023-03-29T12:29:22.929Z,4.85
2023-03-29T12:34:43.999Z,4.95
2023-03-29T12:40:13.876Z,4.75
2023-03-29T12:45:48.768Z,5.22
2023-03-29T12:50:54.851Z,6.18
2023-03-29T13:01:26.573Z,5.80
2023-03-29T13:06:34.010Z,6.28
2023-03-29T13:11:41.461Z,6.00
2023-03-29T13:16:46.107Z,5.63
2023-03-29T13:22:00.942Z,6.22
2023-03-29T13:27:17.035Z,6.05
2023-03-29T13:32:46.339Z,5.47
2023-03-29T13:38:02.347Z,5.50
2023-03-29T13:43:20.525Z,6.47
2023-03-29T13:48:28.989Z,6.68
2023-03-29T13:53:39.106Z,6.43
2023-03-29T13:59:03.893Z,5.30
2023-03-29T14:04:15.695Z,5.25
2023-03-29T14:09:23.035Z,5.95
2023-03-29T14:14:31.719Z,4.40
2023-03-29T14:19:37.636Z,6.82
2023-03-29T14:24:48.169Z,5.28
2023-03-29T14:29:53.887Z,5.95
2023-03-29T14:34:58.817Z,6.03
2023-03-29T14:40:08.874Z,6.25
2023-03-29T14:45:17.829Z,4.60
2023-03-29T14:50:28.173Z,4.75
2023-03-29T14:55:33.190Z,6.07
2023-03-29T15:00:43.468Z,5.13
2023-03-29T15:05:53.452Z,4.60
2023-03-29T15:10:57.749Z,4.68
2023-03-29T15:16:06.630Z,8.38
2023-03-29T15:21:17.706Z,5.35
2023-03-29T15:26:24.866Z,5.72
2023-03-29T15:31:36.944Z,6.68
2023-03-29T15:36:43.383Z,5.65
2023-03-29T15:41:49.992Z,5.40
2023-03-29T15:46:57.775Z,5.20
2023-03-29T15:52:02.081Z,5.57
2023-03-29T15:57:08.873Z,6.18
2023-03-29T16:02:16.884Z,6.68
2023-03-29T16:07:21.437Z,6.22
2023-03-29T16:12:25.557Z,5.32
2023-03-29T16:17:31.397Z,6.13
2023-03-29T16:22:35.940Z,6.95
2023-03-29T16:27:40.289Z,8.30
2023-03-29T16:32:46.233Z,8.10
2023-03-29T16:37:50.543Z,9.10
2023-03-29T16:42:54.908Z,10.48
2023-03-29T16:48:00.597Z,11.05
2023-03-29T16:58:09.686Z,10.93
2023-03-29T17:03:15.298Z,13.25
2023-03-29T17:08:19.890Z,18.00
2023-03-29T17:13:26.082Z,34.90
2023-03-29T17:18:32.252Z,39.60
2023-03-29T17:28:43.613Z,15.15
2023-03-29T17:33:52.148Z,47.75
2023-03-29T17:38:56.554Z,106.18
2023-03-29T17:44:01.236Z,81.10
2023-03-29T17:49:07.707Z,33.80
2023-03-29T17:54:12.312Z,77.03
2023-03-29T17:59:16.884Z,63.72
2023-03-29T18:04:24.890Z,153.73
2023-03-29T18:14:35.669Z,107.53
2023-03-29T18:19:41.249Z,76.22
2023-03-29T18:24:49.326Z,85.22
2023-03-29T18:29:55.306Z,68.18
2023-03-29T18:35:02.504Z,56.13
2023-03-29T18:40:10.147Z,64.68
2023-03-29T18:45:14.751Z,68.22
2023-03-29T18:50:20.712Z,77.28
2023-03-29T19:00:29.151Z,66.13
2023-03-29T19:05:35.045Z,65.85
2023-03-29T19:10:40.665Z,65.15
2023-03-29T19:15:45.668Z,65.13
2023-03-29T19:20:51.375Z,63.00
2023-03-29T19:25:56.469Z,58.30
2023-03-29T19:31:02.429Z,53.63
2023-03-29T19:41:12.656Z,39.97
2023-03-29T19:46:16.930Z,41.53
2023-03-29T19:51:23.595Z,45.70
2023-03-29T19:56:28.948Z,44.38
2023-03-29T20:01:34.007Z,45.75
2023-03-29T20:06:39.716Z,49.17
2023-03-29T20:11:45.015Z,60.15
2023-03-29T20:16:50.852Z,59.50
2023-03-29T20:21:57.708Z,57.35
2023-03-29T20:27:03.849Z,57.90
2023-03-29T20:32:09.227Z,58.72
2023-03-29T20:37:14.954Z,57.45
2023-03-29T20:42:24.672Z,54.15
2023-03-29T20:47:29.600Z,43.30
2023-03-29T20:52:36.122Z,31.48
2023-03-29T20:57:43.872Z,35.58
2023-03-29T21:02:48.440Z,32.53
2023-03-29T21:07:55.535Z,30.20
2023-03-29T21:13:00.757Z,29.60
2023-03-29T21:18:05.783Z,28.02
2023-03-29T21:23:12.737Z,27.33
2023-03-29T21:28:17.000Z,29.85
2023-03-29T21:33:21.271Z,21.48
2023-03-29T21:38:26.927Z,34.88
2023-03-29T21:43:31.374Z,36.00
2023-03-29T21:48:36.043Z,32.50
2023-03-29T21:53:41.978Z,33.38
2023-03-29T21:58:46.174Z,30.08
2023-03-29T22:03:50.502Z,33.53
2023-03-29T22:08:56.463Z,34.42
2023-03-29T22:14:00.659Z,27.67
2023-03-29T22:19:06.416Z,24.85
2023-03-29T22:24:12.047Z,30.85
2023-03-29T22:29:16.343Z,31.58
2023-03-29T22:34:20.476Z,22.95
2023-03-29T22:39:26.074Z,22.45
2023-03-29T22:44:30.287Z,26.00
2023-03-29T22:49:34.711Z,29.92
2023-03-29T22:54:40.576Z,23.58
2023-03-29T22:59:44.652Z,20.02
2023-03-29T23:04:49.108Z,17.20
2023-03-29T23:09:54.944Z,19.10
2023-03-29T23:14:59.140Z,16.52
2023-03-29T23:20:06.016Z,17.70
2023-03-29T23:25:12.100Z,17.02
2023-03-29T23:30:17.106Z,17.38
2023-03-29T23:35:21.469Z,17.13
2023-03-29T23:40:27.914Z,17.90
2023-03-29T23:45:32.606Z,15.77
2023-03-29T23:50:36.930Z,14.65
2023-03-29T23:55:42.717Z,17.20
